createdAt,value
2023-06-07T00:00:04.026Z,13.62
2023-06-07T00:01:03.728Z,13.50
2023-06-07T00:02:03.900Z,13.64
2023-06-07T00:03:03.983Z,13.83
2023-06-07T00:04:04.129Z,13.64
2023-06-07T00:05:04.096Z,13.61
2023-06-07T00:06:04.084Z,13.42
2023-06-07T00:07:04.155Z,13.71
2023-06-07T00:08:04.216Z,13.54
2023-06-07T00:09:04.290Z,13.08
2023-06-07T00:10:04.787Z,13.03
2023-06-07T00:11:06.717Z,13.00
2023-06-07T00:12:04.478Z,13.24
2023-06-07T00:13:04.500Z,13.23
2023-06-07T00:14:04.580Z,13.29
2023-06-07T00:15:04.585Z,12.69
2023-06-07T00:16:04.591Z,12.93
2023-06-07T00:17:04.683Z,13.32
2023-06-07T00:18:04.728Z,12.94
2023-06-07T00:19:04.921Z,12.70
2023-06-07T00:20:04.970Z,12.34
2023-06-07T00:21:04.722Z,12.41
2023-06-07T00:22:04.826Z,12.45
2023-06-07T00:23:04.796Z,12.51
2023-06-07T00:24:04.861Z,12.74
2023-06-07T00:25:04.895Z,12.44
2023-06-07T00:26:04.881Z,12.18
2023-06-07T00:27:04.935Z,12.25
2023-06-07T00:28:04.977Z,12.06
2023-06-07T00:29:04.998Z,12.17
2023-06-07T00:30:05.345Z,12.22
2023-06-07T00:31:05.154Z,12.27
2023-06-07T00:32:05.073Z,12.25
2023-06-07T00:33:05.131Z,11.81
2023-06-07T00:34:05.197Z,11.93
2023-06-07T00:35:05.197Z,12.01
2023-06-07T00:36:05.233Z,12.06
2023-06-07T00:37:05.265Z,11.94
2023-06-07T00:38:05.299Z,11.75
2023-06-07T00:39:05.330Z,11.78
2023-06-07T00:40:05.625Z,11.55
2023-06-07T00:41:05.367Z,11.40
2023-06-07T00:42:05.399Z,11.29
2023-06-07T00:43:05.460Z,11.47
2023-06-07T00:44:05.478Z,11.36
2023-06-07T00:45:05.511Z,11.32
2023-06-07T00:46:05.545Z,11.22
2023-06-07T00:47:05.573Z,11.35
2023-06-07T00:48:05.744Z,11.09
2023-06-07T00:49:05.698Z,11.15
2023-06-07T00:50:05.966Z,10.76
2023-06-07T00:51:05.824Z,10.57
2023-06-07T00:52:05.909Z,10.93
2023-06-07T00:53:06.000Z,10.78
2023-06-07T00:54:06.056Z,10.57
2023-06-07T00:55:06.094Z,10.39
2023-06-07T00:56:06.203Z,10.63
2023-06-07T00:57:06.229Z,10.90
2023-06-07T00:58:06.330Z,10.84
2023-06-07T00:59:06.424Z,10.56
2023-06-07T01:00:06.807Z,10.87
2023-06-07T01:01:06.542Z,10.91
2023-06-07T01:02:06.665Z,10.77
2023-06-07T01:03:06.763Z,10.74
2023-06-07T01:04:06.781Z,10.82
2023-06-07T01:05:06.890Z,10.97
2023-06-07T01:06:06.932Z,10.99
2023-06-07T01:07:06.996Z,11.06
2023-06-07T01:08:07.061Z,11.25
2023-06-07T01:09:07.158Z,11.14
2023-06-07T01:10:07.350Z,11.03
2023-06-07T01:11:07.294Z,11.07
2023-06-07T01:12:07.406Z,11.12
2023-06-07T01:13:07.464Z,10.84
2023-06-07T01:14:07.570Z,11.08
2023-06-07T01:15:07.644Z,10.93
2023-06-07T01:16:07.757Z,11.04
2023-06-07T01:17:07.781Z,11.05
2023-06-07T01:18:07.945Z,10.98
2023-06-07T01:19:07.927Z,10.58
2023-06-07T01:20:08.021Z,10.56
2023-06-07T01:21:08.105Z,10.77
2023-06-07T01:22:08.144Z,10.58
2023-06-07T01:23:08.232Z,10.51
2023-06-07T01:24:08.455Z,10.54
2023-06-07T01:25:08.392Z,10.52
2023-06-07T01:26:08.454Z,10.42
2023-06-07T01:27:08.551Z,10.68
2023-06-07T01:28:08.600Z,10.40
2023-06-07T01:29:08.643Z,10.32
2023-06-07T01:30:08.692Z,10.39
2023-06-07T01:31:08.754Z,10.45
2023-06-07T01:32:08.949Z,10.46
2023-06-07T01:33:08.962Z,10.30
2023-06-07T01:34:08.994Z,10.28
2023-06-07T01:35:09.081Z,10.39
2023-06-07T01:36:09.132Z,10.42
2023-06-07T01:37:09.198Z,10.23
2023-06-07T01:38:09.271Z,10.27
2023-06-07T01:39:09.351Z,10.29
2023-06-07T01:40:09.434Z,10.54
2023-06-07T01:41:09.479Z,10.49
2023-06-07T01:42:09.577Z,10.33
2023-06-07T01:43:09.617Z,10.49
2023-06-07T01:44:09.710Z,10.64
2023-06-07T01:45:09.802Z,10.30
2023-06-07T01:46:09.931Z,10.69
2023-06-07T01:47:09.937Z,10.84
2023-06-07T01:48:10.094Z,10.66
2023-06-07T01:49:10.104Z,10.65
2023-06-07T01:50:10.215Z,10.59
2023-06-07T01:51:10.286Z,10.53
2023-06-07T01:52:10.376Z,10.50
2023-06-07T01:53:10.442Z,10.34
2023-06-07T01:54:10.514Z,10.49
2023-06-07T01:55:10.565Z,10.36
2023-06-07T01:56:10.647Z,10.41
2023-06-07T01:57:10.822Z,10.21
2023-06-07T01:58:10.842Z,10.03
2023-06-07T01:59:10.889Z,9.76
2023-06-07T02:00:10.976Z,9.83
2023-06-07T02:01:11.101Z,9.73
2023-06-07T02:02:11.105Z,9.80
2023-06-07T02:03:11.231Z,9.97
2023-06-07T02:04:11.319Z,10.06
2023-06-07T02:05:11.420Z,10.10
2023-06-07T02:06:11.452Z,10.12
2023-06-07T02:07:11.522Z,9.82
2023-06-07T02:08:11.580Z,9.84
2023-06-07T02:09:11.687Z,9.88
2023-06-07T02:10:11.746Z,9.53
2023-06-07T02:11:11.854Z,9.60
2023-06-07T02:12:11.947Z,9.64
2023-06-07T02:13:11.994Z,9.64
2023-06-07T02:14:12.054Z,9.45
2023-06-07T02:15:12.145Z,9.57
2023-06-07T02:16:12.235Z,9.68
2023-06-07T02:17:12.384Z,9.57
2023-06-07T02:18:12.442Z,9.68
2023-06-07T02:19:12.497Z,9.60
2023-06-07T02:20:12.550Z,9.39
2023-06-07T02:21:12.645Z,9.41
2023-06-07T02:22:12.684Z,9.30
2023-06-07T02:23:12.794Z,9.35
2023-06-07T02:24:12.943Z,8.99
2023-06-07T02:25:13.038Z,9.15
2023-06-07T02:26:12.995Z,9.29
2023-06-07T02:27:13.094Z,9.28
2023-06-07T02:28:13.198Z,9.05
2023-06-07T02:29:13.277Z,8.98
2023-06-07T02:30:13.334Z,8.91
2023-06-07T02:31:13.480Z,9.12
2023-06-07T02:32:13.483Z,9.06
2023-06-07T02:33:13.684Z,8.98
2023-06-07T02:34:13.649Z,9.03
2023-06-07T02:35:13.746Z,8.92
2023-06-07T02:36:13.812Z,8.67
2023-06-07T02:37:13.907Z,8.70
2023-06-07T02:38:14.004Z,8.86
2023-06-07T02:39:14.068Z,8.73
2023-06-07T02:40:14.155Z,8.83
2023-06-07T02:41:14.257Z,8.69
2023-06-07T02:42:14.320Z,8.69
2023-06-07T02:43:14.421Z,8.66
2023-06-07T02:44:14.488Z,8.87
2023-06-07T02:45:14.558Z,8.72
2023-06-07T02:46:14.647Z,8.80
2023-06-07T02:47:14.755Z,8.74
2023-06-07T02:48:14.770Z,8.79
2023-06-07T02:49:14.857Z,8.77
2023-06-07T02:50:15.005Z,8.65
2023-06-07T02:51:15.031Z,8.58
2023-06-07T02:52:15.096Z,8.72
2023-06-07T02:53:15.204Z,8.85
2023-06-07T02:54:15.245Z,8.80
2023-06-07T02:55:15.343Z,8.77
2023-06-07T02:56:15.423Z,8.94
2023-06-07T02:57:15.475Z,8.74
2023-06-07T02:58:15.586Z,8.65
2023-06-07T02:59:15.640Z,8.72
2023-06-07T03:00:15.731Z,8.43
2023-06-07T03:01:15.822Z,8.73
2023-06-07T03:02:15.951Z,8.73
2023-06-07T03:03:16.047Z,8.59
2023-06-07T03:04:16.050Z,8.82
2023-06-07T03:05:16.147Z,8.67
2023-06-07T03:06:16.239Z,8.56
2023-06-07T03:07:16.333Z,8.60
2023-06-07T03:08:16.421Z,8.51
2023-06-07T03:09:16.451Z,8.43
2023-06-07T03:10:16.538Z,8.30
2023-06-07T03:11:16.597Z,8.35
2023-06-07T03:12:16.667Z,8.33
2023-06-07T03:13:16.813Z,8.37
2023-06-07T03:14:16.871Z,8.24
2023-06-07T03:15:16.940Z,8.33
2023-06-07T03:16:17.076Z,8.35
2023-06-07T03:17:17.087Z,8.63
2023-06-07T03:18:17.204Z,8.65
2023-06-07T03:19:17.258Z,8.52
2023-06-07T03:20:17.345Z,8.84
2023-06-07T03:21:17.420Z,8.58
2023-06-07T03:22:17.496Z,8.65
2023-06-07T03:23:17.580Z,8.55
2023-06-07T03:24:17.783Z,8.45
2023-06-07T03:25:17.811Z,8.72
2023-06-07T03:26:17.830Z,8.68
2023-06-07T03:27:17.941Z,8.53
2023-06-07T03:28:18.042Z,8.56
2023-06-07T03:29:18.081Z,8.63
2023-06-07T03:30:18.172Z,8.70
2023-06-07T03:31:18.345Z,8.69
2023-06-07T03:32:18.352Z,8.64
2023-06-07T03:33:18.488Z,8.73
2023-06-07T03:34:18.471Z,8.72
2023-06-07T03:35:18.559Z,8.67
2023-06-07T03:36:18.665Z,8.77
2023-06-07T03:37:18.737Z,8.84
2023-06-07T03:38:18.811Z,8.67
2023-06-07T03:39:18.878Z,8.95
2023-06-07T03:40:18.966Z,8.77
2023-06-07T03:41:19.033Z,8.88
2023-06-07T03:42:19.116Z,9.02
2023-06-07T03:43:19.193Z,9.01
2023-06-07T03:44:19.285Z,8.76
2023-06-07T03:45:19.379Z,9.00
2023-06-07T03:46:19.438Z,9.00
2023-06-07T03:47:19.505Z,8.88
2023-06-07T03:48:19.704Z,8.85
2023-06-07T03:49:19.746Z,8.96
2023-06-07T03:50:19.783Z,8.92
2023-06-07T03:51:19.795Z,8.86
2023-06-07T03:52:19.900Z,8.78
2023-06-07T03:53:19.965Z,8.90
2023-06-07T03:54:20.073Z,8.91
2023-06-07T03:55:20.135Z,8.85
2023-06-07T03:56:20.222Z,8.62
2023-06-07T03:57:20.354Z,8.79
2023-06-07T03:58:20.420Z,8.77
2023-06-07T03:59:20.546Z,8.91
2023-06-07T04:00:20.562Z,8.87
2023-06-07T04:01:20.639Z,8.85
2023-06-07T04:02:20.776Z,8.80
2023-06-07T04:03:20.881Z,8.63
2023-06-07T04:04:20.956Z,8.68
2023-06-07T04:05:20.977Z,8.83
2023-06-07T04:06:21.058Z,8.75
2023-06-07T04:07:21.155Z,8.80
2023-06-07T04:08:21.240Z,8.81
2023-06-07T04:09:21.310Z,8.85
2023-06-07T04:10:21.391Z,8.82
2023-06-07T04:11:21.481Z,8.79
2023-06-07T04:12:21.560Z,8.89
2023-06-07T04:13:21.646Z,8.93
2023-06-07T04:14:21.704Z,8.88
2023-06-07T04:15:21.828Z,8.78
2023-06-07T04:16:21.878Z,8.81
2023-06-07T04:17:21.898Z,8.76
2023-06-07T04:18:22.003Z,8.67
2023-06-07T04:19:22.079Z,8.73
2023-06-07T04:20:22.240Z,8.87
2023-06-07T04:21:22.276Z,8.86
2023-06-07T04:22:22.340Z,8.96
2023-06-07T04:23:22.450Z,8.81
2023-06-07T04:24:22.529Z,8.89
2023-06-07T04:25:22.596Z,8.82
2023-06-07T04:26:22.676Z,8.66
2023-06-07T04:27:22.774Z,8.75
2023-06-07T04:28:22.825Z,8.86
2023-06-07T04:29:22.940Z,8.84
2023-06-07T04:30:22.995Z,8.75
2023-06-07T04:31:23.166Z,8.78
2023-06-07T04:32:23.274Z,8.83
2023-06-07T04:33:23.255Z,8.62
2023-06-07T04:34:23.338Z,8.76
2023-06-07T04:35:23.387Z,8.77
2023-06-07T04:36:23.458Z,8.72
2023-06-07T04:37:23.554Z,8.78
2023-06-07T04:38:23.975Z,8.72
2023-06-07T04:39:23.700Z,8.67
2023-06-07T04:40:23.775Z,8.50
2023-06-07T04:41:23.855Z,8.57
2023-06-07T04:42:23.968Z,8.40
2023-06-07T04:43:24.043Z,8.53
2023-06-07T04:44:24.089Z,8.66
2023-06-07T04:45:24.210Z,8.62
2023-06-07T04:46:24.348Z,8.66
2023-06-07T04:47:24.386Z,8.51
2023-06-07T04:48:24.447Z,8.62
2023-06-07T04:49:24.552Z,8.50
2023-06-07T04:50:24.643Z,8.21
2023-06-07T04:51:24.726Z,8.27
2023-06-07T04:52:26.843Z,8.32
2023-06-07T04:53:24.822Z,8.37
2023-06-07T04:54:24.853Z,8.24
2023-06-07T04:55:24.865Z,8.21
2023-06-07T04:56:24.887Z,8.25
2023-06-07T04:57:24.939Z,8.30
2023-06-07T04:58:24.980Z,8.36
2023-06-07T04:59:24.977Z,8.40
2023-06-07T05:00:32.519Z,8.37
2023-06-07T05:01:25.069Z,8.39
2023-06-07T05:02:25.153Z,8.45
2023-06-07T05:03:25.174Z,8.48
2023-06-07T05:04:25.180Z,8.68
2023-06-07T05:05:25.185Z,8.80
2023-06-07T05:06:25.206Z,8.89
2023-06-07T05:07:25.240Z,8.96
2023-06-07T05:08:25.257Z,9.06
2023-06-07T05:09:26.704Z,9.06
2023-06-07T05:10:25.330Z,9.11
2023-06-07T05:11:25.381Z,8.98
2023-06-07T05:12:25.404Z,9.15
2023-06-07T05:13:25.436Z,9.09
2023-06-07T05:14:25.469Z,9.09
2023-06-07T05:15:25.500Z,9.05
2023-06-07T05:16:25.619Z,9.16
2023-06-07T05:17:25.617Z,9.18
2023-06-07T05:18:25.595Z,9.12
2023-06-07T05:19:25.616Z,9.04
2023-06-07T05:20:25.616Z,8.96
2023-06-07T05:21:25.647Z,9.04
2023-06-07T05:22:25.716Z,9.00
2023-06-07T05:23:25.754Z,9.02
2023-06-07T05:24:25.813Z,8.86
2023-06-07T05:25:25.878Z,8.85
2023-06-07T05:26:25.801Z,8.84
2023-06-07T05:27:25.867Z,8.61
2023-06-07T05:28:25.861Z,8.61
2023-06-07T05:29:25.906Z,8.47
2023-06-07T05:30:25.925Z,8.20
2023-06-07T05:31:25.999Z,8.26
2023-06-07T05:32:26.034Z,8.14
2023-06-07T05:33:26.019Z,7.83
2023-06-07T05:34:26.116Z,6.64
2023-06-07T05:35:26.056Z,5.91
2023-06-07T05:36:26.094Z,5.52
2023-06-07T05:37:26.132Z,5.52
2023-06-07T05:38:26.628Z,5.13
2023-06-07T05:39:26.180Z,4.86
2023-06-07T05:40:26.195Z,4.11
2023-06-07T05:41:26.234Z,4.03
2023-06-07T05:42:26.379Z,3.38
2023-06-07T05:43:26.357Z,3.45
2023-06-07T05:44:26.606Z,3.37
2023-06-07T05:45:33.418Z,3.55
2023-06-07T05:46:26.555Z,3.11
2023-06-07T05:47:26.557Z,2.35
2023-06-07T05:48:26.466Z,2.43
2023-06-07T05:49:26.625Z,2.40
2023-06-07T05:50:26.589Z,2.56
2023-06-07T05:51:26.626Z,2.81
2023-06-07T05:52:26.706Z,3.42
2023-06-07T05:53:26.705Z,3.85
2023-06-07T05:54:27.176Z,4.27
2023-06-07T05:55:26.845Z,4.51
2023-06-07T05:56:26.836Z,4.74
2023-06-07T05:57:26.873Z,5.29
2023-06-07T05:58:26.957Z,5.61
2023-06-07T05:59:26.950Z,6.08
2023-06-07T06:00:26.958Z,6.79
2023-06-07T06:01:27.007Z,6.86
2023-06-07T06:02:27.073Z,6.91
2023-06-07T06:03:27.176Z,7.02
2023-06-07T06:04:28.088Z,6.94
2023-06-07T06:05:27.210Z,6.96
2023-06-07T06:06:27.160Z,7.20
2023-06-07T06:07:27.190Z,6.78
2023-06-07T06:08:28.398Z,5.51
2023-06-07T06:09:27.892Z,5.15
2023-06-07T06:10:27.323Z,4.71
2023-06-07T06:11:27.302Z,4.60
2023-06-07T06:12:27.345Z,4.52
2023-06-07T06:13:27.400Z,4.88
2023-06-07T06:14:27.989Z,4.93
2023-06-07T06:15:28.527Z,5.15
2023-06-07T06:16:28.167Z,5.37
2023-06-07T06:17:27.520Z,5.89
2023-06-07T06:18:27.517Z,5.05
2023-06-07T06:19:28.631Z,4.61
2023-06-07T06:20:27.609Z,4.24
2023-06-07T06:21:27.642Z,3.96
2023-06-07T06:22:27.674Z,4.24
2023-06-07T06:23:28.118Z,4.80
2023-06-07T06:24:28.141Z,4.47
2023-06-07T06:25:27.910Z,4.73
2023-06-07T06:26:28.002Z,4.74
2023-06-07T06:27:28.158Z,5.03
2023-06-07T06:28:28.835Z,5.64
2023-06-07T06:29:28.371Z,5.95
2023-06-07T06:30:30.388Z,3.86
2023-06-07T06:31:28.594Z,2.89
2023-06-07T06:32:28.597Z,2.48
2023-06-07T06:33:28.757Z,2.05
2023-06-07T06:34:29.336Z,1.84
2023-06-07T06:35:28.841Z,1.65
2023-06-07T06:36:28.948Z,1.59
2023-06-07T06:37:29.005Z,1.63
2023-06-07T06:38:29.133Z,1.57
2023-06-07T06:39:29.192Z,1.59
2023-06-07T06:40:29.222Z,1.78
2023-06-07T06:41:29.352Z,1.83
2023-06-07T06:42:29.563Z,1.98
2023-06-07T06:43:29.468Z,2.30
2023-06-07T06:44:29.576Z,2.75
2023-06-07T06:45:29.768Z,3.23
2023-06-07T06:46:29.760Z,3.43
2023-06-07T06:47:29.976Z,3.75
2023-06-07T06:48:29.848Z,4.03
2023-06-07T06:49:30.246Z,3.94
2023-06-07T06:50:32.805Z,3.77
2023-06-07T06:51:30.011Z,4.07
2023-06-07T06:52:30.047Z,4.29
2023-06-07T06:53:30.059Z,4.50
2023-06-07T06:54:30.137Z,2.99
2023-06-07T06:55:30.228Z,2.34
2023-06-07T06:56:30.184Z,2.41
2023-06-07T06:57:30.196Z,2.67
2023-06-07T06:58:30.231Z,3.02
2023-06-07T06:59:30.263Z,3.45
2023-06-07T07:00:30.289Z,3.83
2023-06-07T07:01:30.341Z,4.31
2023-06-07T07:02:30.412Z,4.61
2023-06-07T07:03:30.409Z,4.95
2023-06-07T07:04:30.499Z,5.33
2023-06-07T07:05:30.889Z,4.94
2023-06-07T07:06:30.459Z,4.91
2023-06-07T07:07:30.501Z,4.88
2023-06-07T07:08:30.533Z,4.90
2023-06-07T07:09:30.542Z,4.76
2023-06-07T07:10:30.697Z,4.84
2023-06-07T07:11:32.040Z,4.94
2023-06-07T07:12:30.639Z,4.90
2023-06-07T07:13:30.694Z,5.08
2023-06-07T07:14:30.721Z,4.98
2023-06-07T07:15:30.737Z,5.02
2023-06-07T07:16:30.806Z,5.31
2023-06-07T07:17:30.785Z,5.28
2023-06-07T07:18:30.817Z,5.19
2023-06-07T07:19:30.833Z,5.38
2023-06-07T07:20:30.842Z,5.43
2023-06-07T07:21:30.887Z,5.71
2023-06-07T07:22:30.880Z,5.85
2023-06-07T07:23:31.000Z,5.98
2023-06-07T07:24:30.954Z,6.21
2023-06-07T07:25:31.187Z,6.49
2023-06-07T07:26:30.988Z,6.80
2023-06-07T07:27:31.004Z,6.66
2023-06-07T07:28:31.040Z,6.18
2023-06-07T07:29:31.064Z,5.79
2023-06-07T07:30:31.208Z,3.92
2023-06-07T07:31:31.147Z,2.57
2023-06-07T07:32:31.144Z,2.17
2023-06-07T07:33:31.165Z,1.70
2023-06-07T07:34:31.384Z,1.40
2023-06-07T07:35:31.281Z,1.09
2023-06-07T07:36:31.353Z,1.00
2023-06-07T07:37:31.435Z,1.03
2023-06-07T07:38:31.509Z,0.95
2023-06-07T07:39:31.762Z,0.88
2023-06-07T07:40:31.679Z,0.83
2023-06-07T07:41:31.783Z,0.84
2023-06-07T07:42:31.873Z,1.03
2023-06-07T07:43:35.339Z,1.35
2023-06-07T07:44:33.188Z,1.35
2023-06-07T07:45:31.996Z,1.38
2023-06-07T07:46:32.152Z,1.46
2023-06-07T07:47:32.087Z,1.77
2023-06-07T07:48:32.064Z,2.29
2023-06-07T07:49:33.709Z,2.93
2023-06-07T07:50:32.183Z,2.78
2023-06-07T07:51:32.243Z,1.70
2023-06-07T07:52:32.166Z,1.19
2023-06-07T07:53:32.149Z,0.76
2023-06-07T07:54:32.215Z,0.59
2023-06-07T07:55:32.706Z,0.48
2023-06-07T07:56:32.271Z,0.50
2023-06-07T07:57:32.277Z,0.48
2023-06-07T07:58:32.343Z,0.50
2023-06-07T07:59:32.343Z,0.48
2023-06-07T08:00:32.500Z,0.50
2023-06-07T08:01:33.224Z,0.53
2023-06-07T08:02:32.472Z,0.50
2023-06-07T08:03:32.681Z,0.50
2023-06-07T08:04:32.493Z,0.50
2023-06-07T08:05:32.685Z,0.53
2023-06-07T08:06:32.595Z,0.50
2023-06-07T08:07:32.587Z,0.50
2023-06-07T08:08:32.624Z,0.50
2023-06-07T08:09:32.616Z,0.50
2023-06-07T08:10:32.717Z,0.53
2023-06-07T08:11:32.662Z,0.51
2023-06-07T08:12:35.026Z,0.57
2023-06-07T08:13:32.705Z,0.71
2023-06-07T08:14:32.714Z,0.81
2023-06-07T08:15:32.738Z,0.79
2023-06-07T08:16:32.838Z,0.79
2023-06-07T08:17:32.837Z,0.75
2023-06-07T08:18:32.910Z,0.73
2023-06-07T08:19:32.831Z,0.73
2023-06-07T08:20:33.238Z,0.72
2023-06-07T08:21:32.941Z,0.70
2023-06-07T08:22:32.897Z,0.61
2023-06-07T08:23:33.295Z,0.55
2023-06-07T08:24:32.951Z,0.53
2023-06-07T08:25:33.247Z,0.49
2023-06-07T08:26:33.050Z,0.50
2023-06-07T08:27:33.041Z,0.53
2023-06-07T08:28:33.061Z,0.56
2023-06-07T08:29:33.072Z,0.59
2023-06-07T08:30:33.224Z,0.57
2023-06-07T08:31:33.265Z,0.63
2023-06-07T08:32:33.270Z,0.69
2023-06-07T08:33:33.214Z,0.79
2023-06-07T08:34:34.541Z,1.25
2023-06-07T08:35:33.730Z,1.79
2023-06-07T08:36:33.289Z,2.40
2023-06-07T08:37:33.320Z,2.35
2023-06-07T08:38:33.302Z,2.10
2023-06-07T08:39:33.325Z,1.95
2023-06-07T08:40:33.403Z,2.05
2023-06-07T08:41:33.373Z,2.04
2023-06-07T08:42:33.396Z,1.96
2023-06-07T08:43:33.473Z,1.74
2023-06-07T08:45:06.788Z,0.50
2023-06-07T08:46:06.766Z,0.50
2023-06-07T08:47:06.536Z,0.50
2023-06-07T08:48:06.677Z,0.50
2023-06-07T08:49:06.598Z,0.50
2023-06-07T08:50:06.881Z,0.59
2023-06-07T08:51:06.747Z,0.77
2023-06-07T08:52:15.625Z,0.99
2023-06-07T08:53:07.633Z,1.00
2023-06-07T08:54:06.665Z,1.06
2023-06-07T08:55:06.733Z,1.25
2023-06-07T08:56:06.683Z,1.74
2023-06-07T08:57:06.725Z,2.73
2023-06-07T08:58:06.681Z,2.91
2023-06-07T08:59:06.685Z,3.03
2023-06-07T09:00:06.987Z,3.19
2023-06-07T09:01:07.191Z,2.68
2023-06-07T09:02:06.714Z,2.62
2023-06-07T09:03:06.814Z,1.82
2023-06-07T09:04:06.736Z,1.84
2023-06-07T09:05:06.751Z,2.00
2023-06-07T09:06:07.229Z,2.28
2023-06-07T09:07:06.821Z,2.30
2023-06-07T09:08:06.908Z,1.83
2023-06-07T09:09:07.019Z,1.80
2023-06-07T09:10:07.304Z,1.94
2023-06-07T09:11:07.133Z,2.03
2023-06-07T09:12:07.127Z,0.92
2023-06-07T09:13:07.175Z,0.56
2023-06-07T09:14:07.240Z,0.56
2023-06-07T09:15:07.316Z,0.52
2023-06-07T09:16:07.734Z,0.44
2023-06-07T09:17:07.503Z,0.50
2023-06-07T09:18:07.638Z,0.89
2023-06-07T09:19:07.622Z,1.19
2023-06-07T09:20:07.830Z,1.38
2023-06-07T09:21:07.780Z,1.48
2023-06-07T09:22:07.802Z,1.60
2023-06-07T09:23:07.891Z,1.75
2023-06-07T09:24:08.042Z,1.68
2023-06-07T09:25:08.052Z,1.57
2023-06-07T09:26:08.108Z,1.42
2023-06-07T09:27:08.149Z,1.29
2023-06-07T09:28:08.228Z,1.22
2023-06-07T09:29:08.308Z,1.13
2023-06-07T09:30:08.606Z,1.07
2023-06-07T09:31:08.820Z,0.95
2023-06-07T09:32:08.509Z,0.74
2023-06-07T09:33:08.720Z,0.67
2023-06-07T09:34:08.711Z,0.71
2023-06-07T09:35:08.814Z,0.72
2023-06-07T09:36:08.816Z,0.69
2023-06-07T09:37:08.842Z,0.85
2023-06-07T09:38:09.375Z,0.76
2023-06-07T09:39:08.997Z,0.80
2023-06-07T09:40:09.032Z,0.86
2023-06-07T09:41:09.238Z,1.00
2023-06-07T09:42:09.123Z,1.71
2023-06-07T09:43:09.141Z,2.84
2023-06-07T09:44:09.188Z,4.01
2023-06-07T09:45:09.182Z,5.22
2023-06-07T09:46:09.193Z,6.47
2023-06-07T09:47:09.275Z,7.70
2023-06-07T09:48:09.348Z,8.74
2023-06-07T09:49:09.339Z,9.32
2023-06-07T09:50:09.351Z,4.11
2023-06-07T09:51:09.731Z,3.86
2023-06-07T09:52:09.409Z,5.49
2023-06-07T09:53:09.361Z,7.30
2023-06-07T09:54:09.389Z,9.13
2023-06-07T09:55:09.518Z,10.70
2023-06-07T09:56:09.748Z,11.72
2023-06-07T09:57:09.613Z,11.20
2023-06-07T09:58:09.500Z,10.85
2023-06-07T09:59:09.618Z,9.72
2023-06-07T10:00:09.832Z,10.59
2023-06-07T10:01:09.649Z,11.11
2023-06-07T10:02:09.609Z,8.50
2023-06-07T10:03:09.696Z,6.29
2023-06-07T10:04:09.685Z,6.02
2023-06-07T10:05:09.644Z,5.87
2023-06-07T10:06:09.774Z,5.90
2023-06-07T10:07:09.757Z,5.54
2023-06-07T10:08:09.740Z,5.47
2023-06-07T10:09:09.756Z,5.20
2023-06-07T10:10:11.179Z,4.88
2023-06-07T10:11:09.833Z,3.68
2023-06-07T10:12:10.346Z,2.73
2023-06-07T10:13:09.863Z,1.90
2023-06-07T10:14:09.986Z,1.59
2023-06-07T10:15:09.964Z,1.50
2023-06-07T10:16:10.338Z,1.08
2023-06-07T10:17:10.250Z,0.94
2023-06-07T10:18:10.216Z,0.83
2023-06-07T10:19:10.119Z,0.73
2023-06-07T10:20:10.161Z,0.63
2023-06-07T10:21:10.239Z,0.63
2023-06-07T10:22:10.251Z,0.65
2023-06-07T10:23:10.266Z,0.62
2023-06-07T10:24:10.403Z,0.63
2023-06-07T10:25:10.427Z,0.63
2023-06-07T10:26:10.402Z,0.66
2023-06-07T10:27:10.736Z,0.70
2023-06-07T10:28:10.492Z,0.79
2023-06-07T10:29:10.617Z,0.83
2023-06-07T10:30:10.605Z,0.82
2023-06-07T10:31:10.908Z,0.84
2023-06-07T10:32:10.829Z,0.81
2023-06-07T10:33:10.818Z,0.78
2023-06-07T10:34:10.821Z,0.69
2023-06-07T10:35:13.422Z,0.58
2023-06-07T10:36:10.935Z,0.57
2023-06-07T10:37:11.264Z,0.51
2023-06-07T10:38:10.888Z,0.49
2023-06-07T10:39:10.922Z,0.45
2023-06-07T10:40:10.950Z,0.50
2023-06-07T10:41:13.260Z,0.51
2023-06-07T10:42:11.296Z,0.51
2023-06-07T10:43:10.964Z,0.48
2023-06-07T10:44:10.988Z,0.48
2023-06-07T10:45:10.947Z,0.46
2023-06-07T10:46:11.125Z,0.46
2023-06-07T10:47:11.619Z,0.50
2023-06-07T10:48:11.022Z,0.52
2023-06-07T10:49:10.989Z,0.54
2023-06-07T10:50:11.195Z,0.55
2023-06-07T10:51:10.998Z,0.54
2023-06-07T10:52:11.280Z,0.56
2023-06-07T10:53:13.998Z,0.56
2023-06-07T10:54:11.028Z,0.56
2023-06-07T10:55:11.056Z,0.57
2023-06-07T10:56:12.051Z,0.57
2023-06-07T10:57:11.333Z,0.57
2023-06-07T10:58:11.067Z,0.59
2023-06-07T10:59:11.094Z,0.64
2023-06-07T11:00:11.080Z,0.85
2023-06-07T11:01:11.164Z,1.02
2023-06-07T11:02:11.332Z,0.94
2023-06-07T11:03:11.240Z,0.88
2023-06-07T11:04:11.290Z,0.71
2023-06-07T11:05:11.235Z,0.62
2023-06-07T11:06:11.159Z,0.62
2023-06-07T11:07:11.149Z,0.64
2023-06-07T11:08:11.251Z,0.48
2023-06-07T11:09:11.159Z,0.41
2023-06-07T11:10:11.549Z,0.34
2023-06-07T11:11:11.197Z,0.34
2023-06-07T11:12:11.266Z,0.34
2023-06-07T11:13:11.288Z,0.43
2023-06-07T11:14:11.325Z,0.50
2023-06-07T11:15:11.353Z,0.56
2023-06-07T11:16:11.520Z,0.39
2023-06-07T11:17:11.810Z,0.34
2023-06-07T11:18:15.663Z,0.34
2023-06-07T11:19:11.566Z,0.34
2023-06-07T11:20:11.669Z,0.34
2023-06-07T11:21:11.594Z,0.34
2023-06-07T11:22:11.814Z,0.34
2023-06-07T11:23:11.583Z,0.34
2023-06-07T11:24:11.656Z,0.34
2023-06-07T11:25:11.657Z,0.35
2023-06-07T11:26:11.619Z,0.45
2023-06-07T11:27:11.870Z,0.55
2023-06-07T11:28:11.615Z,0.58
2023-06-07T11:29:11.695Z,0.69
2023-06-07T11:30:11.753Z,0.85
2023-06-07T11:31:11.832Z,1.25
2023-06-07T11:32:12.038Z,1.92
2023-06-07T11:33:11.876Z,2.36
2023-06-07T11:34:11.917Z,2.48
2023-06-07T11:35:16.939Z,2.74
2023-06-07T11:36:13.434Z,2.75
2023-06-07T11:37:12.319Z,2.84
2023-06-07T11:38:11.947Z,3.12
2023-06-07T11:39:11.988Z,3.77
2023-06-07T11:40:11.949Z,5.41
2023-06-07T11:41:11.977Z,6.66
2023-06-07T11:42:11.983Z,7.81
2023-06-07T11:43:11.997Z,9.77
2023-06-07T11:44:11.963Z,11.88
2023-06-07T11:45:12.008Z,14.24
2023-06-07T11:46:12.012Z,16.83
2023-06-07T11:47:12.073Z,19.77
2023-06-07T11:48:12.110Z,22.01
2023-06-07T11:49:12.089Z,25.34
2023-06-07T11:50:12.050Z,28.54
2023-06-07T11:51:12.054Z,30.64
2023-06-07T11:52:12.045Z,33.04
2023-06-07T11:53:13.525Z,36.27
2023-06-07T11:54:12.056Z,39.44
2023-06-07T11:55:12.072Z,42.62
2023-06-07T11:56:12.127Z,46.63
2023-06-07T11:57:12.187Z,50.39
2023-06-07T11:58:12.211Z,56.67
2023-06-07T11:59:12.246Z,63.12
2023-06-07T12:00:12.248Z,64.88
2023-06-07T12:01:12.297Z,70.51
2023-06-07T12:02:12.296Z,74.68
2023-06-07T12:03:12.629Z,80.16
2023-06-07T12:04:12.497Z,83.81
2023-06-07T12:05:12.418Z,85.53
2023-06-07T12:06:12.440Z,90.30
2023-06-07T12:07:12.496Z,94.33
2023-06-07T12:08:12.478Z,98.97
2023-06-07T12:09:12.526Z,104.57
2023-06-07T12:10:12.555Z,109.80
2023-06-07T12:11:12.570Z,114.92
2023-06-07T12:12:12.586Z,119.77
2023-06-07T12:13:12.654Z,122.15
2023-06-07T12:14:12.682Z,130.28
2023-06-07T12:15:12.676Z,126.16
2023-06-07T12:16:12.739Z,126.25
2023-06-07T12:17:12.750Z,135.24
2023-06-07T12:18:12.783Z,137.98
2023-06-07T12:19:12.819Z,144.29
2023-06-07T12:20:12.871Z,151.77
2023-06-07T12:21:12.970Z,157.24
2023-06-07T12:22:12.912Z,164.57
2023-06-07T12:23:12.981Z,173.02
2023-06-07T12:24:13.042Z,180.14
2023-06-07T12:25:12.997Z,187.08
2023-06-07T12:26:12.996Z,191.24
2023-06-07T12:27:13.079Z,195.91
2023-06-07T12:28:13.170Z,197.22
2023-06-07T12:29:13.105Z,194.70
2023-06-07T12:30:13.167Z,195.50
2023-06-07T12:31:13.211Z,196.66
2023-06-07T12:32:13.219Z,199.59
2023-06-07T12:33:13.235Z,205.60
2023-06-07T12:34:13.269Z,206.36
2023-06-07T12:35:13.304Z,213.08
2023-06-07T12:36:13.353Z,218.96
2023-06-07T12:37:13.413Z,222.71
2023-06-07T12:38:13.389Z,224.62
2023-06-07T12:39:13.457Z,228.31
2023-06-07T12:40:13.477Z,232.27
2023-06-07T12:41:13.517Z,234.93
2023-06-07T12:42:13.546Z,232.58
2023-06-07T12:43:13.572Z,224.93
2023-06-07T12:44:13.574Z,225.48
2023-06-07T12:45:13.594Z,228.66
2023-06-07T12:46:13.634Z,231.33
2023-06-07T12:47:13.754Z,233.98
2023-06-07T12:48:13.789Z,236.43
2023-06-07T12:49:13.718Z,234.36
2023-06-07T12:50:13.721Z,237.06
2023-06-07T12:51:13.745Z,237.70
2023-06-07T12:52:13.795Z,242.93
2023-06-07T12:53:13.779Z,246.04
2023-06-07T12:54:13.811Z,239.26
2023-06-07T12:55:14.427Z,344.29
2023-06-07T12:56:13.825Z,511.62
2023-06-07T12:57:13.882Z,498.55
2023-06-07T12:58:13.901Z,268.95
2023-06-07T12:59:13.935Z,232.07
2023-06-07T13:00:13.973Z,199.92
2023-06-07T13:01:14.136Z,206.87
2023-06-07T13:02:14.045Z,208.00
2023-06-07T13:03:14.169Z,267.27
2023-06-07T13:04:14.161Z,156.54
2023-06-07T13:05:14.130Z,104.32
2023-06-07T13:06:14.199Z,80.09
2023-06-07T13:07:14.497Z,60.37
2023-06-07T13:08:14.239Z,74.05
2023-06-07T13:09:14.286Z,132.61
2023-06-07T13:10:14.389Z,183.44